createdAt,value
2022-10-17T00:00:51.101Z,1013.29
2022-10-17T00:01:51.151Z,1013.24
2022-10-17T00:02:51.108Z,1013.22
2022-10-17T00:03:51.086Z,1013.22
2022-10-17T00:04:51.091Z,1013.30
2022-10-17T00:05:51.088Z,1013.35
2022-10-17T00:06:51.082Z,1013.35
2022-10-17T00:07:51.086Z,1013.37
2022-10-17T00:08:51.080Z,1013.37
2022-10-17T00:09:51.083Z,1013.37
2022-10-17T00:10:51.084Z,1013.37
2022-10-17T00:11:51.089Z,1013.35
2022-10-17T00:12:51.082Z,1013.35
2022-10-17T00:13:51.092Z,1013.33
2022-10-17T00:14:51.099Z,1013.26
2022-10-17T00:15:51.080Z,1013.32
2022-10-17T00:16:51.071Z,1013.36
2022-10-17T00:17:51.071Z,1013.29
2022-10-17T00:18:51.070Z,1013.31
2022-10-17T00:19:51.064Z,1013.31
2022-10-17T00:20:51.079Z,1013.25
2022-10-17T00:21:51.081Z,1013.31
2022-10-17T00:22:51.070Z,1013.29
2022-10-17T00:23:51.064Z,1013.24
2022-10-17T00:24:51.055Z,1013.27
2022-10-17T00:25:51.068Z,1013.29
2022-10-17T00:26:51.062Z,1013.41
2022-10-17T00:27:51.072Z,1013.36
2022-10-17T00:28:51.126Z,1013.36
2022-10-17T00:29:51.046Z,1013.30
2022-10-17T00:30:51.073Z,1013.34
2022-10-17T00:31:51.095Z,1013.35
2022-10-17T00:32:51.052Z,1013.31
2022-10-17T00:33:51.050Z,1013.29
2022-10-17T00:34:51.047Z,1013.30
2022-10-17T00:35:51.036Z,1013.31
2022-10-17T00:36:51.044Z,1013.31
2022-10-17T00:37:51.042Z,1013.36
2022-10-17T00:38:51.038Z,1013.35
2022-10-17T00:39:51.037Z,1013.31
2022-10-17T00:40:51.092Z,1013.31
2022-10-17T00:41:51.043Z,1013.29
2022-10-17T00:42:51.038Z,1013.29
2022-10-17T00:43:51.045Z,1013.28
2022-10-17T00:44:51.052Z,1013.25
2022-10-17T00:45:51.030Z,1013.28
2022-10-17T00:46:51.061Z,1013.27
2022-10-17T00:47:51.033Z,1013.31
2022-10-17T00:48:51.037Z,1013.33
2022-10-17T00:49:51.126Z,1013.29
2022-10-17T00:50:51.034Z,1013.27
2022-10-17T00:51:51.013Z,1013.30
2022-10-17T00:52:51.036Z,1013.26
2022-10-17T00:53:51.011Z,1013.23
2022-10-17T00:54:51.017Z,1013.25
2022-10-17T00:55:51.015Z,1013.23
2022-10-17T00:56:51.017Z,1013.23
2022-10-17T00:57:51.014Z,1013.25
2022-10-17T00:58:51.019Z,1013.27
2022-10-17T00:59:51.009Z,1013.24
2022-10-17T01:00:51.010Z,1013.27
2022-10-17T01:01:51.010Z,1013.30
2022-10-17T01:02:51.029Z,1013.29
2022-10-17T01:03:50.996Z,1013.32
2022-10-17T01:04:51.017Z,1013.34
2022-10-17T01:05:51.000Z,1013.37
2022-10-17T01:06:51.002Z,1013.36
2022-10-17T01:07:50.990Z,1013.42
2022-10-17T01:08:50.997Z,1013.46
2022-10-17T01:09:50.999Z,1013.43
2022-10-17T01:10:50.989Z,1013.44
2022-10-17T01:11:50.998Z,1013.39
2022-10-17T01:12:50.988Z,1013.41
2022-10-17T01:13:50.996Z,1013.39
2022-10-17T01:14:50.988Z,1013.43
2022-10-17T01:15:51.000Z,1013.40
2022-10-17T01:16:50.992Z,1013.41
2022-10-17T01:17:50.996Z,1013.42
2022-10-17T01:18:50.999Z,1013.37
2022-10-17T01:19:50.974Z,1013.34
2022-10-17T01:20:50.981Z,1013.36
2022-10-17T01:21:50.980Z,1013.40
2022-10-17T01:22:50.970Z,1013.37
2022-10-17T01:23:50.971Z,1013.39
2022-10-17T01:24:50.976Z,1013.38
2022-10-17T01:25:50.964Z,1013.44
2022-10-17T01:26:50.976Z,1013.36
2022-10-17T01:27:50.979Z,1013.38
2022-10-17T01:28:50.979Z,1013.38
2022-10-17T01:29:50.983Z,1013.32
2022-10-17T01:30:50.958Z,1013.38
2022-10-17T01:31:50.962Z,1013.31
2022-10-17T01:32:50.956Z,1013.37
2022-10-17T01:33:50.964Z,1013.37
2022-10-17T01:34:50.971Z,1013.36
2022-10-17T01:35:50.960Z,1013.33
2022-10-17T01:36:50.954Z,1013.34
2022-10-17T01:38:50.956Z,1013.32
2022-10-17T01:39:50.955Z,1013.28
2022-10-17T01:40:50.961Z,1013.31
2022-10-17T01:41:50.957Z,1013.28
2022-10-17T01:42:50.938Z,1013.26
2022-10-17T01:43:50.944Z,1013.27
2022-10-17T01:44:50.944Z,1013.26
2022-10-17T01:45:50.944Z,1013.24
2022-10-17T01:46:50.972Z,1013.22
2022-10-17T01:47:50.934Z,1013.20
2022-10-17T01:48:50.943Z,1013.19
2022-10-17T01:49:50.938Z,1013.16
2022-10-17T01:50:50.948Z,1013.20
2022-10-17T01:51:50.932Z,1013.14
2022-10-17T01:52:50.943Z,1013.12
2022-10-17T01:53:50.937Z,1013.11
2022-10-17T01:54:50.943Z,1013.08
2022-10-17T01:55:50.989Z,1013.14
2022-10-17T01:56:50.922Z,1013.10
2022-10-17T01:57:50.926Z,1013.08
2022-10-17T01:58:50.928Z,1013.15
2022-10-17T01:59:50.925Z,1013.12
2022-10-17T02:00:50.915Z,1013.11
2022-10-17T02:01:51.087Z,1013.09
2022-10-17T02:02:50.907Z,1013.09
2022-10-17T02:03:50.917Z,1013.12
2022-10-17T02:04:50.972Z,1013.13
2022-10-17T02:05:50.910Z,1013.10
2022-10-17T02:06:50.924Z,1013.13
2022-10-17T02:07:50.907Z,1013.11
2022-10-17T02:08:50.907Z,1013.11
2022-10-17T02:09:50.901Z,1013.11
2022-10-17T02:10:50.909Z,1013.12
2022-10-17T02:11:50.906Z,1013.12
2022-10-17T02:12:50.910Z,1013.09
2022-10-17T02:13:50.897Z,1013.10
2022-10-17T02:14:50.891Z,1013.13
2022-10-17T02:15:50.899Z,1013.11
2022-10-17T02:16:50.899Z,1013.09
2022-10-17T02:17:50.892Z,1013.10
2022-10-17T02:18:50.884Z,1013.09
2022-10-17T02:19:50.910Z,1013.11
2022-10-17T02:20:50.883Z,1013.08
2022-10-17T02:21:50.880Z,1013.09
2022-10-17T02:22:50.911Z,1013.10
2022-10-17T02:23:50.877Z,1013.06
2022-10-17T02:24:50.882Z,1013.06
2022-10-17T02:25:50.879Z,1013.07
2022-10-17T02:26:50.879Z,1013.04
2022-10-17T02:27:50.872Z,1013.05
2022-10-17T02:28:50.988Z,1013.09
2022-10-17T02:29:50.875Z,1013.12
2022-10-17T02:30:50.874Z,1013.09
2022-10-17T02:31:50.867Z,1013.09
2022-10-17T02:32:50.865Z,1013.07
2022-10-17T02:33:50.869Z,1013.08
2022-10-17T02:34:50.876Z,1013.10
2022-10-17T02:35:50.868Z,1013.05
2022-10-17T02:36:50.858Z,1013.10
2022-10-17T02:37:50.862Z,1013.13
2022-10-17T02:38:50.890Z,1013.10
2022-10-17T02:39:50.855Z,1013.11
2022-10-17T02:40:50.855Z,1013.11
2022-10-17T02:41:50.857Z,1013.06
2022-10-17T02:42:50.866Z,1013.10
2022-10-17T02:43:50.850Z,1013.08
2022-10-17T02:44:50.854Z,1013.08
2022-10-17T02:45:50.850Z,1013.04
2022-10-17T02:46:50.853Z,1013.04
2022-10-17T02:47:50.850Z,1013.08
2022-10-17T02:48:50.861Z,1013.05
2022-10-17T02:49:50.840Z,1013.05
2022-10-17T02:50:50.843Z,1013.03
2022-10-17T02:51:50.843Z,1013.05
2022-10-17T02:52:50.835Z,1013.03
2022-10-17T02:53:50.832Z,1013.01
2022-10-17T02:54:50.858Z,1013.00
2022-10-17T02:55:50.832Z,1013.00
2022-10-17T02:56:50.841Z,1013.03
2022-10-17T02:57:50.835Z,1013.05
2022-10-17T02:58:50.832Z,1013.04
2022-10-17T02:59:50.831Z,1013.05
2022-10-17T03:00:51.103Z,1013.06
2022-10-17T03:01:50.826Z,1013.08
2022-10-17T03:02:50.827Z,1013.05
2022-10-17T03:03:50.815Z,1013.05
2022-10-17T03:04:50.815Z,1013.04
2022-10-17T03:05:50.816Z,1013.06
2022-10-17T03:06:50.822Z,1013.03
2022-10-17T03:07:50.820Z,1013.02
2022-10-17T03:08:50.819Z,1013.00
2022-10-17T03:09:50.814Z,1013.05
2022-10-17T03:10:50.836Z,1013.03
2022-10-17T03:11:50.817Z,1013.10
2022-10-17T03:12:50.806Z,1013.06
2022-10-17T03:13:50.803Z,1013.04
2022-10-17T03:14:50.808Z,1013.06
2022-10-17T03:15:50.813Z,1013.06
2022-10-17T03:16:50.802Z,1013.05
2022-10-17T03:17:50.801Z,1013.11
2022-10-17T03:18:50.795Z,1013.08
2022-10-17T03:19:50.794Z,1013.08
2022-10-17T03:20:50.816Z,1013.11
2022-10-17T03:21:50.816Z,1013.11
2022-10-17T03:22:50.795Z,1013.10
2022-10-17T03:23:50.797Z,1013.08
2022-10-17T03:24:50.786Z,1013.05
2022-10-17T03:25:50.786Z,1013.12
2022-10-17T03:26:50.805Z,1013.12
2022-10-17T03:27:50.784Z,1013.09
2022-10-17T03:28:53.631Z,1013.09
2022-10-17T03:29:50.784Z,1013.08
2022-10-17T03:30:50.773Z,1013.12
2022-10-17T03:31:50.787Z,1013.11
2022-10-17T03:32:50.769Z,1013.11
2022-10-17T03:33:50.774Z,1013.15
2022-10-17T03:34:50.781Z,1013.15
2022-10-17T03:36:50.775Z,1013.18
2022-10-17T03:37:50.773Z,1013.18
2022-10-17T03:38:50.768Z,1013.23
2022-10-17T03:39:50.770Z,1013.23
2022-10-17T03:40:50.774Z,1013.26
2022-10-17T03:41:50.768Z,1013.23
2022-10-17T03:42:50.782Z,1013.28
2022-10-17T03:43:50.781Z,1013.28
2022-10-17T03:44:50.751Z,1013.24
2022-10-17T03:45:50.767Z,1013.21
2022-10-17T03:46:50.752Z,1013.26
2022-10-17T03:47:50.758Z,1013.26
2022-10-17T03:48:50.747Z,1013.27
2022-10-17T03:49:50.754Z,1013.26
2022-10-17T03:50:50.750Z,1013.29
2022-10-17T03:51:50.741Z,1013.28
2022-10-17T03:52:50.750Z,1013.29
2022-10-17T03:53:50.748Z,1013.33
2022-10-17T03:54:50.741Z,1013.34
2022-10-17T03:55:50.740Z,1013.32
2022-10-17T03:56:50.780Z,1013.35
2022-10-17T03:57:50.740Z,1013.32
2022-10-17T03:58:50.748Z,1013.37
2022-10-17T03:59:50.734Z,1013.38
2022-10-17T04:00:50.785Z,1013.35
2022-10-17T04:01:50.728Z,1013.34
2022-10-17T04:02:50.729Z,1013.39
2022-10-17T04:03:50.724Z,1013.37
2022-10-17T04:04:50.720Z,1013.40
2022-10-17T04:05:50.731Z,1013.45
2022-10-17T04:06:50.734Z,1013.40
2022-10-17T04:07:50.722Z,1013.40
2022-10-17T04:08:50.723Z,1013.39
2022-10-17T04:09:50.730Z,1013.36
2022-10-17T04:10:50.719Z,1013.37
2022-10-17T04:11:50.715Z,1013.38
2022-10-17T04:12:50.717Z,1013.40
2022-10-17T04:13:50.718Z,1013.36
2022-10-17T04:14:50.733Z,1013.38
2022-10-17T04:15:50.703Z,1013.39
2022-10-17T04:16:50.700Z,1013.38
2022-10-17T04:17:50.708Z,1013.43
2022-10-17T04:18:50.703Z,1013.39
2022-10-17T04:19:50.706Z,1013.39
2022-10-17T04:20:50.702Z,1013.37
2022-10-17T04:21:50.701Z,1013.36
2022-10-17T04:22:50.691Z,1013.30
2022-10-17T04:23:50.698Z,1013.30
2022-10-17T04:24:50.699Z,1013.33
2022-10-17T04:25:50.694Z,1013.37
2022-10-17T04:26:50.684Z,1013.39
2022-10-17T04:27:50.684Z,1013.40
2022-10-17T04:28:50.696Z,1013.43
2022-10-17T04:29:50.688Z,1013.45
2022-10-17T04:30:54.005Z,1013.45
2022-10-17T04:31:50.686Z,1013.49
2022-10-17T04:32:50.685Z,1013.48
2022-10-17T04:33:50.685Z,1013.52
2022-10-17T04:34:50.682Z,1013.54
2022-10-17T04:35:50.682Z,1013.58
2022-10-17T04:36:50.677Z,1013.57
2022-10-17T04:37:50.669Z,1013.56
2022-10-17T04:38:50.667Z,1013.54
2022-10-17T04:39:50.667Z,1013.51
2022-10-17T04:40:50.666Z,1013.52
2022-10-17T04:41:50.669Z,1013.53
2022-10-17T04:42:50.669Z,1013.52
2022-10-17T04:43:51.393Z,1013.56
2022-10-17T04:44:50.660Z,1013.58
2022-10-17T04:45:50.657Z,1013.58
2022-10-17T04:46:50.674Z,1013.58
2022-10-17T04:47:50.661Z,1013.59
2022-10-17T04:48:50.663Z,1013.56
2022-10-17T04:49:50.657Z,1013.58
2022-10-17T04:50:50.659Z,1013.57
2022-10-17T04:51:50.645Z,1013.54
2022-10-17T04:52:50.656Z,1013.57
2022-10-17T04:53:50.650Z,1013.53
2022-10-17T04:54:50.655Z,1013.47
2022-10-17T04:55:50.643Z,1013.48
2022-10-17T04:56:50.651Z,1013.44
2022-10-17T04:57:50.645Z,1013.47
2022-10-17T04:58:50.639Z,1013.49
2022-10-17T04:59:50.642Z,1013.49
2022-10-17T05:00:50.686Z,1013.50
2022-10-17T05:01:50.640Z,1013.53
2022-10-17T05:02:50.660Z,1013.50
2022-10-17T05:03:50.635Z,1013.53
2022-10-17T05:04:50.631Z,1013.52
2022-10-17T05:05:50.660Z,1013.49
2022-10-17T05:06:50.634Z,1013.52
2022-10-17T05:07:50.626Z,1013.52
2022-10-17T05:08:50.623Z,1013.58
2022-10-17T05:09:50.622Z,1013.63
2022-10-17T05:10:50.675Z,1013.58
2022-10-17T05:11:50.616Z,1013.62
2022-10-17T05:12:50.623Z,1013.60
2022-10-17T05:13:50.613Z,1013.61
2022-10-17T05:14:50.625Z,1013.61
2022-10-17T05:15:50.619Z,1013.67
2022-10-17T05:16:50.607Z,1013.70
2022-10-17T05:17:50.607Z,1013.75
2022-10-17T05:18:52.960Z,1013.81
2022-10-17T05:19:50.616Z,1013.79
2022-10-17T05:20:50.613Z,1013.73
2022-10-17T05:21:50.602Z,1013.67
2022-10-17T05:22:50.597Z,1013.69
2022-10-17T05:23:50.604Z,1013.64
2022-10-17T05:24:50.598Z,1013.62
2022-10-17T05:25:50.595Z,1013.62
2022-10-17T05:26:50.601Z,1013.57
2022-10-17T05:27:50.599Z,1013.61
2022-10-17T05:28:50.649Z,1013.60
2022-10-17T05:29:50.638Z,1013.68
2022-10-17T05:30:50.592Z,1013.66
2022-10-17T05:31:50.639Z,1013.63
2022-10-17T05:32:50.585Z,1013.65
2022-10-17T05:33:50.590Z,1013.70
2022-10-17T05:34:50.606Z,1013.74
2022-10-17T05:35:50.579Z,1013.71
2022-10-17T05:36:50.581Z,1013.76
2022-10-17T05:37:50.587Z,1013.73
2022-10-17T05:38:50.574Z,1013.75
2022-10-17T05:39:51.585Z,1013.72
2022-10-17T05:40:50.574Z,1013.73
2022-10-17T05:41:50.578Z,1013.74
2022-10-17T05:42:50.581Z,1013.81
2022-10-17T05:43:50.571Z,1013.80
2022-10-17T05:44:50.573Z,1013.84
2022-10-17T05:45:50.580Z,1013.83
2022-10-17T05:46:50.561Z,1013.79
2022-10-17T05:47:50.570Z,1013.79
2022-10-17T05:48:50.561Z,1013.80
2022-10-17T05:49:52.435Z,1013.73
2022-10-17T05:50:50.581Z,1013.73
2022-10-17T05:51:50.567Z,1013.70
2022-10-17T05:52:50.556Z,1013.68
2022-10-17T05:53:50.559Z,1013.64
2022-10-17T05:54:50.558Z,1013.83
2022-10-17T05:55:50.557Z,1013.67
2022-10-17T05:56:50.557Z,1013.66
2022-10-17T05:57:50.561Z,1013.68
2022-10-17T05:58:53.218Z,1013.73
2022-10-17T05:59:50.544Z,1013.73
2022-10-17T06:00:50.561Z,1013.70
2022-10-17T06:01:50.634Z,1013.69
2022-10-17T06:02:50.543Z,1013.73
2022-10-17T06:03:50.547Z,1013.74
2022-10-17T06:04:50.594Z,1013.71
2022-10-17T06:05:50.537Z,1013.70
2022-10-17T06:06:50.565Z,1013.74
2022-10-17T06:07:50.534Z,1013.73
2022-10-17T06:08:50.544Z,1013.74
2022-10-17T06:09:50.535Z,1013.77
2022-10-17T06:10:50.535Z,1013.78
2022-10-17T06:11:50.532Z,1013.75
2022-10-17T06:12:50.535Z,1013.77
2022-10-17T06:13:50.525Z,1013.74
2022-10-17T06:14:50.535Z,1013.83
2022-10-17T06:15:50.529Z,1013.84
2022-10-17T06:16:50.523Z,1013.85
2022-10-17T06:17:50.519Z,1013.87
2022-10-17T06:18:50.530Z,1013.87
2022-10-17T06:19:50.515Z,1013.89
2022-10-17T06:20:50.538Z,1013.95
2022-10-17T06:21:50.529Z,1013.92
2022-10-17T06:22:50.543Z,1013.94
2022-10-17T06:23:50.517Z,1013.96
2022-10-17T06:24:50.607Z,1013.97
2022-10-17T06:25:50.516Z,1014.03
2022-10-17T06:26:50.537Z,1014.03
2022-10-17T06:27:50.602Z,1014.06
2022-10-17T06:28:50.612Z,1014.07
2022-10-17T06:29:50.514Z,1014.04
2022-10-17T06:30:50.502Z,1014.06
2022-10-17T06:31:50.500Z,1014.04
2022-10-17T06:32:50.507Z,1014.06
2022-10-17T06:33:50.499Z,1014.07
2022-10-17T06:34:50.495Z,1014.07
2022-10-17T06:35:50.495Z,1014.13
2022-10-17T06:36:50.527Z,1014.09
2022-10-17T06:37:50.501Z,1014.10
2022-10-17T06:38:50.511Z,1014.08
2022-10-17T06:39:50.492Z,1014.10
2022-10-17T06:40:50.488Z,1014.13
2022-10-17T06:41:50.504Z,1014.21
2022-10-17T06:42:50.493Z,1014.17
2022-10-17T06:43:50.490Z,1014.16
2022-10-17T06:44:50.492Z,1014.22
2022-10-17T06:45:50.527Z,1014.24
2022-10-17T06:46:50.489Z,1014.24
2022-10-17T06:47:50.508Z,1014.24
2022-10-17T06:48:50.488Z,1014.27
2022-10-17T06:49:50.484Z,1014.34
2022-10-17T06:50:50.509Z,1014.34
2022-10-17T06:51:50.476Z,1014.39
2022-10-17T06:52:50.481Z,1014.38
2022-10-17T06:53:50.473Z,1014.33
2022-10-17T06:54:50.527Z,1014.31
2022-10-17T06:55:50.469Z,1014.31
2022-10-17T06:56:50.473Z,1014.31
2022-10-17T06:57:50.472Z,1014.29
2022-10-17T06:58:50.474Z,1014.34
2022-10-17T06:59:50.472Z,1014.32
2022-10-17T07:00:50.590Z,1014.36
2022-10-17T07:01:50.469Z,1014.39
2022-10-17T07:02:50.468Z,1014.42
2022-10-17T07:03:50.458Z,1014.47
2022-10-17T07:04:50.464Z,1014.46
2022-10-17T07:05:50.459Z,1014.46
2022-10-17T07:06:50.534Z,1014.42
2022-10-17T07:07:51.872Z,1014.46
2022-10-17T07:08:50.452Z,1014.50
2022-10-17T07:09:50.462Z,1014.51
2022-10-17T07:10:50.479Z,1014.57
2022-10-17T07:11:50.470Z,1014.55
2022-10-17T07:12:50.458Z,1014.53
2022-10-17T07:13:50.457Z,1014.57
2022-10-17T07:14:50.452Z,1014.57
2022-10-17T07:15:50.508Z,1014.63
2022-10-17T07:16:50.450Z,1014.63
2022-10-17T07:17:50.449Z,1014.62
2022-10-17T07:18:50.448Z,1014.61
2022-10-17T07:19:50.438Z,1014.61
2022-10-17T07:20:50.438Z,1014.65
2022-10-17T07:21:50.435Z,1014.67
2022-10-17T07:22:50.443Z,1014.66
2022-10-17T07:23:50.430Z,1014.63
2022-10-17T07:25:50.437Z,1014.65
2022-10-17T07:26:50.459Z,1014.64
2022-10-17T07:27:50.435Z,1014.61
2022-10-17T07:28:50.483Z,1014.63
2022-10-17T07:29:50.433Z,1014.63
2022-10-17T07:30:52.181Z,1014.62
2022-10-17T07:31:50.433Z,1014.64
2022-10-17T07:32:50.430Z,1014.62
2022-10-17T07:33:50.424Z,1014.59
2022-10-17T07:34:50.425Z,1014.64
2022-10-17T07:35:50.426Z,1014.64
2022-10-17T07:36:50.426Z,1014.64
2022-10-17T07:37:50.424Z,1014.69
2022-10-17T07:38:50.412Z,1014.69
2022-10-17T07:39:50.419Z,1014.71
2022-10-17T07:40:50.410Z,1014.72
2022-10-17T07:41:50.410Z,1014.76
2022-10-17T07:42:50.433Z,1014.72
2022-10-17T07:43:50.420Z,1014.81
2022-10-17T07:44:50.413Z,1014.83
2022-10-17T07:45:50.402Z,1014.77
2022-10-17T07:46:50.424Z,1014.80
2022-10-17T07:47:50.405Z,1014.75
2022-10-17T07:48:50.410Z,1014.75
2022-10-17T07:49:50.404Z,1014.81
2022-10-17T07:50:50.404Z,1014.80
2022-10-17T07:51:50.393Z,1014.81
2022-10-17T07:52:50.396Z,1014.76
2022-10-17T07:53:50.392Z,1014.75
2022-10-17T07:54:50.391Z,1014.78
2022-10-17T07:55:50.387Z,1014.74
2022-10-17T07:56:50.527Z,1014.75
2022-10-17T07:57:50.393Z,1014.73
2022-10-17T07:58:50.434Z,1014.78
2022-10-17T07:59:50.390Z,1014.72
2022-10-17T08:00:50.454Z,1014.76
2022-10-17T08:01:50.385Z,1014.75
2022-10-17T08:02:50.389Z,1014.79
2022-10-17T08:03:50.381Z,1014.76
2022-10-17T08:04:50.384Z,1014.76
2022-10-17T08:05:50.377Z,1014.78
2022-10-17T08:06:53.399Z,1014.77
2022-10-17T08:07:50.381Z,1014.77
2022-10-17T08:08:50.374Z,1014.82
2022-10-17T08:09:50.379Z,1014.80
2022-10-17T08:10:50.369Z,1014.82
2022-10-17T08:11:50.378Z,1014.89
2022-10-17T08:12:50.369Z,1014.90
2022-10-17T08:13:50.376Z,1014.91
2022-10-17T08:14:50.386Z,1014.90
2022-10-17T08:15:50.376Z,1014.95
2022-10-17T08:16:50.369Z,1014.95
2022-10-17T08:17:50.367Z,1014.96
2022-10-17T08:18:50.368Z,1014.91
2022-10-17T08:19:50.357Z,1014.96
2022-10-17T08:20:50.378Z,1014.95
2022-10-17T08:21:50.359Z,1014.97
2022-10-17T08:22:50.355Z,1015.01
2022-10-17T08:23:50.359Z,1015.04
2022-10-17T08:24:50.350Z,1015.06
2022-10-17T08:25:50.353Z,1015.08
2022-10-17T08:26:51.874Z,1015.08
2022-10-17T08:27:50.355Z,1015.03
2022-10-17T08:28:50.440Z,1015.10
2022-10-17T08:29:50.351Z,1015.13
2022-10-17T08:30:50.372Z,1015.12
2022-10-17T08:31:54.081Z,1015.10
2022-10-17T08:32:50.350Z,1015.12
2022-10-17T08:33:50.342Z,1015.12
2022-10-17T08:34:50.346Z,1015.13
2022-10-17T08:35:50.336Z,1015.13
2022-10-17T08:36:50.349Z,1015.13
2022-10-17T08:37:50.344Z,1015.19
2022-10-17T08:38:52.941Z,1015.20
2022-10-17T08:39:50.336Z,1015.25
2022-10-17T08:40:50.340Z,1015.23
2022-10-17T08:41:50.339Z,1015.27
2022-10-17T08:42:50.335Z,1015.33
2022-10-17T08:43:50.338Z,1015.35
2022-10-17T08:44:50.335Z,1015.40
2022-10-17T08:45:50.324Z,1015.40
2022-10-17T08:46:50.358Z,1015.43
2022-10-17T08:47:50.320Z,1015.46
2022-10-17T08:48:50.323Z,1015.51
2022-10-17T08:49:50.326Z,1015.47
2022-10-17T08:50:50.328Z,1015.50
2022-10-17T08:51:50.315Z,1015.52
2022-10-17T08:52:50.324Z,1015.54
2022-10-17T08:53:50.331Z,1015.62
2022-10-17T08:54:50.318Z,1015.62
2022-10-17T08:55:50.320Z,1015.53
2022-10-17T08:56:50.323Z,1015.58
2022-10-17T08:57:50.319Z,1015.58
2022-10-17T08:58:50.307Z,1015.57
2022-10-17T08:59:50.315Z,1015.62
2022-10-17T09:00:50.313Z,1015.65
2022-10-17T09:01:50.303Z,1015.72
2022-10-17T09:02:50.407Z,1015.71
2022-10-17T09:03:50.308Z,1015.72
2022-10-17T09:04:50.309Z,1015.65
2022-10-17T09:05:50.302Z,1015.68
2022-10-17T09:06:50.318Z,1015.64
2022-10-17T09:07:50.304Z,1015.65
2022-10-17T09:08:50.306Z,1015.62
2022-10-17T09:09:50.305Z,1015.61
2022-10-17T09:10:50.292Z,1015.64
2022-10-17T09:11:50.306Z,1015.68
2022-10-17T09:12:50.298Z,1015.63
2022-10-17T09:13:50.305Z,1015.71
2022-10-17T09:14:50.296Z,1015.70
2022-10-17T09:15:50.292Z,1015.74
2022-10-17T09:16:50.287Z,1015.73
2022-10-17T09:17:50.290Z,1015.73
2022-10-17T09:18:50.306Z,1015.78
2022-10-17T09:19:50.284Z,1015.81
2022-10-17T09:20:50.287Z,1015.83
2022-10-17T09:21:50.280Z,1015.81
2022-10-17T09:22:50.319Z,1015.77
2022-10-17T09:23:53.220Z,1015.76
2022-10-17T09:24:50.285Z,1015.76
2022-10-17T09:25:50.282Z,1015.71
2022-10-17T09:26:50.275Z,1015.71
2022-10-17T09:27:50.283Z,1015.74
2022-10-17T09:28:50.330Z,1015.72
2022-10-17T09:29:50.274Z,1015.77
2022-10-17T09:30:50.292Z,1015.78
2022-10-17T09:31:50.305Z,1015.86
2022-10-17T09:32:50.279Z,1015.88
2022-10-17T09:33:54.417Z,1015.90
2022-10-17T09:34:50.285Z,1015.93
2022-10-17T09:35:50.270Z,1015.88
2022-10-17T09:36:50.268Z,1015.93
2022-10-17T09:37:50.270Z,1015.96
2022-10-17T09:38:50.261Z,1015.94
2022-10-17T09:39:50.264Z,1015.92
2022-10-17T09:40:52.657Z,1015.93
2022-10-17T09:41:50.338Z,1015.98
2022-10-17T09:42:50.280Z,1015.97
2022-10-17T09:43:50.263Z,1015.91
2022-10-17T09:44:50.262Z,1015.91
2022-10-17T09:45:50.259Z,1015.89
2022-10-17T09:46:50.298Z,1015.90
2022-10-17T09:48:53.257Z,1015.91
2022-10-17T09:49:50.252Z,1015.88
2022-10-17T09:50:57.932Z,1015.94
2022-10-17T09:51:50.248Z,1015.98
2022-10-17T09:52:50.244Z,1016.00
2022-10-17T09:53:50.246Z,1015.97
2022-10-17T09:54:50.248Z,1015.99
2022-10-17T09:55:50.242Z,1015.96
2022-10-17T09:56:50.253Z,1015.95
2022-10-17T09:57:50.251Z,1015.96
2022-10-17T09:58:50.246Z,1015.95
2022-10-17T09:59:50.241Z,1015.96
2022-10-17T10:00:50.297Z,1015.98
2022-10-17T10:01:50.242Z,1016.00
2022-10-17T10:02:50.244Z,1016.02
2022-10-17T10:03:50.239Z,1016.03
2022-10-17T10:05:03.767Z,1016.07
2022-10-17T10:05:50.226Z,1016.03
2022-10-17T10:06:50.251Z,1016.03
2022-10-17T10:07:50.230Z,1016.00
2022-10-17T10:08:50.232Z,1016.02
2022-10-17T10:09:50.232Z,1016.06
2022-10-17T10:10:50.231Z,1016.06
2022-10-17T10:11:50.228Z,1016.10
2022-10-17T10:12:50.236Z,1016.10
2022-10-17T10:13:50.221Z,1016.12
2022-10-17T10:14:53.365Z,1016.10
2022-10-17T10:15:50.219Z,1016.09
2022-10-17T10:16:50.224Z,1016.10
2022-10-17T10:17:50.220Z,1016.10
2022-10-17T10:18:51.161Z,1016.11
2022-10-17T10:19:50.230Z,1016.13
2022-10-17T10:20:50.216Z,1016.13
2022-10-17T10:21:50.221Z,1016.11
2022-10-17T10:22:50.256Z,1016.12
2022-10-17T10:23:50.203Z,1016.15
2022-10-17T10:24:50.212Z,1016.14
2022-10-17T10:25:50.217Z,1016.20
2022-10-17T10:26:50.217Z,1016.19
2022-10-17T10:27:50.200Z,1016.26
2022-10-17T10:28:50.264Z,1016.24
2022-10-17T10:29:50.206Z,1016.19
2022-10-17T10:30:50.202Z,1016.19
2022-10-17T10:31:50.196Z,1016.20
2022-10-17T10:33:30.939Z,1016.19
2022-10-17T10:34:30.950Z,1016.19
2022-10-17T10:35:30.936Z,1016.20
2022-10-17T10:36:31.089Z,1016.14
2022-10-17T10:37:31.229Z,1016.15
2022-10-17T10:38:30.950Z,1016.13
2022-10-17T10:39:30.935Z,1016.18
2022-10-17T10:40:30.942Z,1016.22
2022-10-17T10:41:30.931Z,1016.23
2022-10-17T10:42:30.929Z,1016.27
2022-10-17T10:43:30.927Z,1016.30
2022-10-17T10:44:30.933Z,1016.35
2022-10-17T10:45:48.534Z,1016.35
2022-10-17T10:46:30.926Z,1016.33
2022-10-17T10:47:31.162Z,1016.40
2022-10-17T10:48:30.921Z,1016.39
2022-10-17T10:49:30.930Z,1016.45
2022-10-17T10:50:30.931Z,1016.48
2022-10-17T10:51:30.924Z,1016.53
2022-10-17T10:52:30.924Z,1016.52
2022-10-17T10:53:34.921Z,1016.55
2022-10-17T10:54:30.977Z,1016.59
2022-10-17T10:55:30.914Z,1016.57
2022-10-17T10:56:30.914Z,1016.55
2022-10-17T10:57:31.604Z,1016.53
2022-10-17T10:58:30.918Z,1016.55
2022-10-17T10:59:30.926Z,1016.52
2022-10-17T11:00:30.946Z,1016.48
2022-10-17T11:01:30.912Z,1016.51
2022-10-17T11:02:30.911Z,1016.49
2022-10-17T11:03:30.938Z,1016.50
2022-10-17T11:04:30.911Z,1016.53
2022-10-17T11:05:30.908Z,1016.50
2022-10-17T11:06:30.911Z,1016.54
2022-10-17T11:07:31.131Z,1016.52
2022-10-17T11:08:30.899Z,1016.52
2022-10-17T11:09:32.969Z,1016.55
2022-10-17T11:10:30.916Z,1016.50
2022-10-17T11:11:30.907Z,1016.44
2022-10-17T11:12:30.895Z,1016.40
2022-10-17T11:13:30.908Z,1016.33
2022-10-17T11:14:30.903Z,1016.35
2022-10-17T11:15:30.890Z,1016.30
2022-10-17T11:16:30.891Z,1016.22
2022-10-17T11:17:31.317Z,1016.19
2022-10-17T11:18:30.900Z,1016.18
2022-10-17T11:19:30.909Z,1016.16
2022-10-17T11:20:30.884Z,1016.19
2022-10-17T11:21:30.908Z,1016.26
2022-10-17T11:22:31.298Z,1016.32
2022-10-17T11:23:30.885Z,1016.37
2022-10-17T11:24:30.890Z,1016.44
2022-10-17T11:25:30.885Z,1016.52
2022-10-17T11:26:30.900Z,1016.59
2022-10-17T11:27:30.882Z,1016.57
2022-10-17T11:28:30.922Z,1016.60
2022-10-17T11:29:30.878Z,1016.63
2022-10-17T11:30:30.881Z,1016.59
2022-10-17T11:31:30.904Z,1016.61
2022-10-17T11:32:31.438Z,1016.69
2022-10-17T11:33:30.877Z,1016.66
2022-10-17T11:34:30.873Z,1016.67
2022-10-17T11:35:30.873Z,1016.64
2022-10-17T11:36:30.873Z,1016.61
2022-10-17T11:37:30.868Z,1016.62
2022-10-17T11:38:30.865Z,1016.67
2022-10-17T11:39:30.868Z,1016.66
2022-10-17T11:40:30.863Z,1016.64
2022-10-17T11:41:30.863Z,1016.60
2022-10-17T11:42:31.174Z,1016.58
2022-10-17T11:43:30.864Z,1016.61
2022-10-17T11:44:30.861Z,1016.57
2022-10-17T11:45:30.862Z,1016.53
2022-10-17T11:46:30.859Z,1016.54
2022-10-17T11:47:30.858Z,1016.55
2022-10-17T11:48:30.862Z,1016.56
2022-10-17T11:49:32.961Z,1016.60
2022-10-17T11:52:51.833Z,1016.56
2022-10-17T11:53:30.850Z,1016.61
2022-10-17T11:54:30.863Z,1016.66
2022-10-17T11:55:30.851Z,1016.64
2022-10-17T11:56:30.844Z,1016.61
2022-10-17T11:57:30.849Z,1016.67
2022-10-17T11:58:30.890Z,1016.71
2022-10-17T11:59:30.844Z,1016.68
2022-10-17T12:00:30.842Z,1016.66
2022-10-17T12:01:30.843Z,1016.76
2022-10-17T12:02:31.182Z,1016.76
2022-10-17T12:03:30.846Z,1016.72
2022-10-17T12:04:30.893Z,1016.78
2022-10-17T12:05:30.835Z,1016.80
2022-10-17T12:06:30.875Z,1016.81
2022-10-17T12:07:31.262Z,1016.81
2022-10-17T12:08:31.405Z,1016.85
2022-10-17T12:09:30.830Z,1016.84
2022-10-17T12:10:30.839Z,1016.84
2022-10-17T12:11:30.826Z,1016.82
2022-10-17T12:12:31.261Z,1016.79